Main page
METAR-TAF:

METAR-TAF

Airports :

George Best Belfast City Airport

Belfast City, Northern Ireland

latitude: 54-36N, longitude: 005-53W, elevation: 5 m

Current weather observation

The report was made 16 minutes ago, at 20:20 UTC
Wind 7 kt from the Northeast
Temperature 13°C
Humidity 72%
Pressure 1031 hPa
Visibility 10 km or more
no clouds below 1500 m and no cumulonimbus

METAR: EGAC 222020Z 05007KT CAVOK 13/08 Q1031

Time: 21:36 (20:36 UTC)

Forecast

The report was made 3 hours and 37 minutes ago, at 16:59 UTC
Forecast valid from 22 at 18 UTC to 22 at 21 UTC
Wind 9 kt from the North
Visibility 10 km or more
Few clouds at a height of 3000 ft

TAF: EGAC 221659Z 2218/2221 36009KT 9999 FEW030

Weather observations and forecasts of more than 4000 airports (METAR and TAF reports).

The available stations are represented by yellow and red dots on the map.

Hover mouse over dot to see the name of the station.

Then click to see weather observations and forecasts.

To change the map : click on the green buttons with a black cross to zoom in, on the green button with a dash to zoom out, or on the green arrows for adjacent maps.


METAR-TAF: